createdAt,value
2023-04-08T00:02:27.896Z,7.90
2023-04-08T00:04:56.131Z,10.63
2023-04-08T00:07:24.028Z,8.45
2023-04-08T00:09:51.890Z,9.25
2023-04-08T00:12:19.749Z,8.55
2023-04-08T00:14:47.614Z,8.25
2023-04-08T00:17:15.616Z,9.00
2023-04-08T00:19:45.092Z,9.10
2023-04-08T00:22:12.942Z,9.55
2023-04-08T00:24:40.886Z,9.23
2023-04-08T00:27:08.690Z,8.80
2023-04-08T00:29:36.546Z,9.90
2023-04-08T00:32:05.111Z,8.73
2023-04-08T00:34:33.023Z,8.18
2023-04-08T00:37:02.520Z,9.18
2023-04-08T00:39:30.665Z,8.15
2023-04-08T00:41:58.604Z,8.98
2023-04-08T00:44:26.375Z,9.43
2023-04-08T00:46:54.232Z,8.68
2023-04-08T00:49:22.097Z,8.55
2023-04-08T00:51:49.866Z,8.75
2023-04-08T00:54:18.935Z,9.20
2023-04-08T00:56:46.836Z,9.18
2023-04-08T00:59:15.374Z,8.73
2023-04-08T01:01:49.073Z,8.98
2023-04-08T01:04:24.448Z,8.73
2023-04-08T01:06:58.415Z,9.20
2023-04-08T01:09:33.429Z,9.13
2023-04-08T01:12:05.231Z,9.40
2023-04-08T01:14:36.272Z,10.35
2023-04-08T01:17:05.715Z,9.65
2023-04-08T01:19:38.653Z,8.90
2023-04-08T01:22:17.518Z,9.60
2023-04-08T01:24:48.784Z,9.65
2023-04-08T01:27:20.173Z,9.25
2023-04-08T01:29:50.093Z,9.20
2023-04-08T01:32:18.631Z,9.65
2023-04-08T01:34:47.014Z,9.55
2023-04-08T01:37:16.430Z,8.85
2023-04-08T01:39:45.121Z,10.02
2023-04-08T01:42:14.868Z,10.35
2023-04-08T01:44:47.287Z,10.00
2023-04-08T01:47:16.988Z,9.15
2023-04-08T01:49:46.104Z,9.70
2023-04-08T01:52:16.033Z,9.23
2023-04-08T01:54:46.011Z,9.68
2023-04-08T01:57:18.715Z,8.77
2023-04-08T01:59:51.669Z,11.10
2023-04-08T02:02:21.120Z,9.37
2023-04-08T02:04:49.656Z,9.75
2023-04-08T02:07:18.872Z,9.60
2023-04-08T02:09:46.589Z,10.10
2023-04-08T02:12:14.725Z,9.80
2023-04-08T02:14:42.663Z,10.48
2023-04-08T02:17:14.500Z,9.95
2023-04-08T02:19:47.836Z,10.52
2023-04-08T02:22:24.327Z,9.50
2023-04-08T02:24:53.150Z,10.15
2023-04-08T02:27:22.035Z,10.25
2023-04-08T02:29:52.042Z,10.18
2023-04-08T02:32:24.890Z,10.27
2023-04-08T02:34:53.642Z,10.30
2023-04-08T02:37:21.526Z,10.10
2023-04-08T02:39:49.263Z,9.30
2023-04-08T02:42:17.149Z,9.65
2023-04-08T02:44:46.188Z,9.13
2023-04-08T02:47:14.089Z,10.60
2023-04-08T02:49:43.233Z,10.57
2023-04-08T02:52:11.067Z,11.07
2023-04-08T02:54:38.905Z,10.85
2023-04-08T02:57:06.707Z,11.27
2023-04-08T02:59:37.858Z,11.45
2023-04-08T03:02:05.658Z,10.60
2023-04-08T03:04:33.444Z,11.77
2023-04-08T03:07:02.693Z,11.00
2023-04-08T03:09:30.498Z,11.82
2023-04-08T03:11:58.276Z,11.88
2023-04-08T03:14:26.188Z,11.70
2023-04-08T03:16:54.018Z,11.98
2023-04-08T03:19:21.863Z,11.82
2023-04-08T03:21:49.733Z,12.45
2023-04-08T03:24:18.815Z,12.45
2023-04-08T03:26:46.776Z,12.88
2023-04-08T03:29:14.767Z,12.05
2023-04-08T03:31:42.697Z,13.05
2023-04-08T03:34:10.586Z,12.50
2023-04-08T03:36:38.369Z,11.82
2023-04-08T03:39:06.465Z,12.90
2023-04-08T03:41:35.865Z,14.18
2023-04-08T03:44:03.941Z,13.52
2023-04-08T03:46:31.810Z,12.43
2023-04-08T03:48:59.644Z,12.98
2023-04-08T03:51:28.574Z,13.50
2023-04-08T03:53:56.541Z,13.10
2023-04-08T03:56:25.122Z,14.43
2023-04-08T03:58:54.458Z,14.40
2023-04-08T04:01:22.312Z,13.20
2023-04-08T04:03:50.375Z,13.32
2023-04-08T04:06:18.408Z,13.25
2023-04-08T04:08:46.512Z,13.82
2023-04-08T04:11:14.343Z,14.20
2023-04-08T04:13:42.410Z,14.07
2023-04-08T04:16:11.754Z,14.50
2023-04-08T04:18:39.601Z,14.50
2023-04-08T04:21:08.069Z,14.13
2023-04-08T04:23:36.011Z,13.48
2023-04-08T04:26:08.782Z,13.98
2023-04-08T04:28:36.606Z,14.37
2023-04-08T04:31:05.184Z,14.10
2023-04-08T04:33:34.336Z,13.80
2023-04-08T04:36:02.111Z,16.35
2023-04-08T04:38:29.973Z,14.40
2023-04-08T04:40:58.998Z,14.40
2023-04-08T04:43:26.826Z,14.10
2023-04-08T04:45:54.622Z,14.57
2023-04-08T04:48:23.188Z,15.18
2023-04-08T04:50:57.574Z,15.30
2023-04-08T04:53:25.964Z,15.10
2023-04-08T04:55:54.429Z,15.70
2023-04-08T04:58:22.462Z,15.50
2023-04-08T05:00:50.573Z,14.48
2023-04-08T05:03:18.680Z,15.82
2023-04-08T05:05:46.697Z,15.85
2023-04-08T05:08:16.311Z,16.02
2023-04-08T05:10:44.028Z,16.25
2023-04-08T05:13:11.800Z,16.65
2023-04-08T05:15:40.019Z,15.70
2023-04-08T05:18:08.282Z,16.52
2023-04-08T05:20:36.692Z,15.93
2023-04-08T05:23:04.702Z,16.08
2023-04-08T05:25:34.303Z,16.83
2023-04-08T05:28:02.341Z,16.95
2023-04-08T05:30:30.587Z,16.48
2023-04-08T05:33:00.312Z,17.08
2023-04-08T05:35:28.720Z,17.55
2023-04-08T05:37:56.808Z,16.55
2023-04-08T05:40:24.852Z,17.05
2023-04-08T05:42:54.010Z,17.33
2023-04-08T05:45:22.014Z,17.00
2023-04-08T05:47:49.958Z,18.20
2023-04-08T05:50:18.119Z,18.25
2023-04-08T05:52:46.174Z,18.13
2023-04-08T05:55:15.684Z,16.67
2023-04-08T05:57:43.606Z,17.30
2023-04-08T06:00:13.628Z,17.50
2023-04-08T06:02:41.679Z,16.27
2023-04-08T06:05:10.749Z,17.60
2023-04-08T06:07:38.516Z,16.52
2023-04-08T06:10:07.297Z,18.25
2023-04-08T06:12:37.150Z,15.38
2023-04-08T06:15:05.572Z,17.33
2023-04-08T06:17:37.378Z,16.38
2023-04-08T06:20:07.212Z,15.73
2023-04-08T06:22:35.056Z,16.90
2023-04-08T06:25:03.231Z,16.98
2023-04-08T06:27:31.138Z,15.95
2023-04-08T06:29:59.216Z,15.95
2023-04-08T06:32:27.007Z,16.20
2023-04-08T06:34:56.947Z,14.48
2023-04-08T06:37:25.227Z,14.80
2023-04-08T06:39:53.049Z,14.63
2023-04-08T06:42:22.590Z,14.40
2023-04-08T06:45:09.846Z,14.43
2023-04-08T06:47:37.815Z,15.10
2023-04-08T06:50:08.185Z,14.40
2023-04-08T06:52:36.136Z,15.02
2023-04-08T06:55:04.470Z,14.38
2023-04-08T06:57:32.959Z,14.10
2023-04-08T07:00:01.181Z,14.55
2023-04-08T07:02:29.292Z,13.43
2023-04-08T07:04:57.935Z,14.18
2023-04-08T07:07:27.239Z,13.00
2023-04-08T07:09:55.009Z,12.88
2023-04-08T07:12:22.907Z,12.82
2023-04-08T07:14:50.713Z,13.77
2023-04-08T07:17:18.453Z,12.00
2023-04-08T07:19:47.180Z,12.43
2023-04-08T07:22:16.171Z,12.20
2023-04-08T07:24:49.853Z,12.00
2023-04-08T07:27:17.714Z,11.40
2023-04-08T07:29:45.862Z,12.43
2023-04-08T07:32:13.658Z,11.25
2023-04-08T07:34:42.047Z,12.73
2023-04-08T07:37:10.122Z,11.73
2023-04-08T07:39:37.825Z,12.77
2023-04-08T07:42:07.040Z,11.93
2023-04-08T07:44:35.116Z,12.95
2023-04-08T07:47:03.253Z,12.00
2023-04-08T07:49:31.858Z,12.77
2023-04-08T07:52:00.815Z,12.02
2023-04-08T07:54:29.492Z,11.75
2023-04-08T07:56:59.933Z,11.30
2023-04-08T07:59:30.315Z,11.40
2023-04-08T08:01:58.982Z,11.90
2023-04-08T08:04:27.685Z,10.70
2023-04-08T08:06:55.803Z,11.95
2023-04-08T08:09:24.117Z,11.63
2023-04-08T08:11:53.345Z,11.27
2023-04-08T08:14:22.012Z,13.30
2023-04-08T08:16:53.379Z,11.90
2023-04-08T08:19:22.555Z,12.73
2023-04-08T08:21:52.446Z,13.02
2023-04-08T08:24:20.731Z,12.68
2023-04-08T08:26:49.999Z,12.85
2023-04-08T08:29:18.621Z,12.52
2023-04-08T08:31:48.988Z,12.10
2023-04-08T08:34:19.881Z,11.93
2023-04-08T08:36:48.547Z,11.10
2023-04-08T08:39:17.989Z,10.70
2023-04-08T08:41:47.236Z,12.55
2023-04-08T08:44:16.167Z,12.52
2023-04-08T08:46:46.239Z,11.15
2023-04-08T08:49:17.035Z,11.85
2023-04-08T08:51:48.274Z,12.68
2023-04-08T08:54:17.464Z,12.23
2023-04-08T08:56:47.037Z,11.98
2023-04-08T08:59:15.447Z,12.85
2023-04-08T09:01:45.041Z,12.88
2023-04-08T09:04:17.315Z,12.40
2023-04-08T09:06:49.540Z,12.00
2023-04-08T09:09:19.552Z,11.98
2023-04-08T09:11:48.979Z,10.95
2023-04-08T09:14:24.471Z,9.88
2023-04-08T09:16:55.310Z,9.13
2023-04-08T09:19:23.916Z,9.73
2023-04-08T09:24:38.506Z,9.40
2023-04-08T09:27:07.032Z,10.50
2023-04-08T09:29:38.289Z,9.35
2023-04-08T09:32:07.997Z,10.60
2023-04-08T09:34:36.727Z,10.90
2023-04-08T09:37:05.541Z,10.38
2023-04-08T09:39:33.851Z,11.00
2023-04-08T09:42:12.846Z,11.27
2023-04-08T09:44:43.722Z,12.32
2023-04-08T09:47:27.988Z,12.23
2023-04-08T09:49:59.587Z,12.65
2023-04-08T09:52:35.642Z,11.00
2023-04-08T09:55:05.544Z,10.95
2023-04-08T09:57:42.530Z,12.00
2023-04-08T10:00:15.305Z,11.48
2023-04-08T10:02:54.292Z,10.85
2023-04-08T10:05:24.547Z,11.98
2023-04-08T10:07:52.874Z,12.43
2023-04-08T10:10:21.917Z,12.32
2023-04-08T10:12:51.698Z,10.88
2023-04-08T10:15:27.971Z,12.50
2023-04-08T10:17:56.979Z,12.98
2023-04-08T10:20:45.799Z,12.15
2023-04-08T10:23:15.354Z,14.05
2023-04-08T10:25:45.214Z,13.68
2023-04-08T10:28:27.178Z,13.45
2023-04-08T10:30:56.654Z,14.60
2023-04-08T10:33:32.724Z,14.05
2023-04-08T10:36:02.935Z,12.98
2023-04-08T10:38:30.993Z,13.00
2023-04-08T10:53:27.026Z,15.70
2023-04-08T10:55:54.968Z,16.92
2023-04-08T10:58:23.008Z,16.17
2023-04-08T11:00:52.675Z,15.70
2023-04-08T11:03:20.831Z,16.25
2023-04-08T11:05:51.608Z,17.50
2023-04-08T11:08:20.903Z,18.75
2023-04-08T11:10:49.769Z,17.52
2023-04-08T11:13:18.834Z,17.98
2023-04-08T11:15:46.759Z,18.58
2023-04-08T11:18:16.693Z,16.70
2023-04-08T11:20:45.050Z,17.05
2023-04-08T11:23:14.852Z,15.82
2023-04-08T11:25:44.656Z,16.30
2023-04-08T11:28:13.051Z,18.23
2023-04-08T11:30:42.192Z,18.10
2023-04-08T11:33:10.305Z,17.85
2023-04-08T11:35:43.444Z,19.48
2023-04-08T11:38:12.553Z,16.85
2023-04-08T11:40:40.290Z,16.55
2023-04-08T11:43:11.774Z,17.42
2023-04-08T11:45:40.316Z,17.05
2023-04-08T11:48:11.812Z,17.20
2023-04-08T11:50:40.484Z,18.77
2023-04-08T11:53:20.537Z,17.27
2023-04-08T11:55:49.768Z,17.27
2023-04-08T11:58:18.083Z,17.73
2023-04-08T12:00:46.807Z,17.38
2023-04-08T12:03:14.920Z,17.80
2023-04-08T12:05:44.076Z,18.20
2023-04-08T12:08:12.202Z,18.65
2023-04-08T12:10:41.839Z,19.13
2023-04-08T12:13:09.521Z,17.88
2023-04-08T12:15:37.843Z,18.55
2023-04-08T12:18:06.329Z,17.75
2023-04-08T12:20:34.497Z,17.60
2023-04-08T12:23:02.544Z,16.98
2023-04-08T12:25:31.404Z,18.10
2023-04-08T12:28:01.080Z,18.95
2023-04-08T12:30:29.458Z,18.95
2023-04-08T12:32:58.037Z,18.17
2023-04-08T12:35:26.398Z,16.73
2023-04-08T12:37:55.568Z,16.67
2023-04-08T12:40:23.461Z,17.42
2023-04-08T12:42:51.291Z,17.77
2023-04-08T12:45:20.670Z,16.75
2023-04-08T12:47:48.586Z,14.35
2023-04-08T12:50:17.141Z,13.98
2023-04-08T12:52:44.976Z,14.02
2023-04-08T12:55:12.953Z,13.77
2023-04-08T12:57:41.083Z,14.10
2023-04-08T13:00:11.496Z,12.05
2023-04-08T13:02:42.240Z,11.80
2023-04-08T13:10:07.973Z,12.27
2023-04-08T13:12:36.045Z,12.48
2023-04-08T13:15:05.241Z,11.57
2023-04-08T13:17:33.693Z,11.98
2023-04-08T13:20:03.852Z,11.65
2023-04-08T13:22:33.692Z,12.15
2023-04-08T13:25:02.122Z,14.23
2023-04-08T13:27:30.421Z,13.32
2023-04-08T13:29:58.263Z,13.48
2023-04-08T13:32:26.400Z,13.35
2023-04-08T13:34:54.580Z,14.27
2023-04-08T13:37:23.890Z,13.98
2023-04-08T13:49:42.404Z,14.02
2023-04-08T13:52:10.230Z,15.48
2023-04-08T13:54:39.339Z,15.35
2023-04-08T13:57:08.075Z,15.38
2023-04-08T13:59:35.823Z,15.02
2023-04-08T14:02:04.718Z,15.65
2023-04-08T14:04:33.600Z,15.80
2023-04-08T14:07:01.433Z,16.70
2023-04-08T14:09:29.593Z,19.80
2023-04-08T14:11:59.078Z,16.38
2023-04-08T14:14:26.802Z,17.05
2023-04-08T14:16:55.090Z,16.77
2023-04-08T14:19:23.170Z,15.95
2023-04-08T14:21:51.308Z,15.43
2023-04-08T14:24:19.267Z,14.52
2023-04-08T14:26:47.424Z,16.55
2023-04-08T14:29:16.727Z,16.30
2023-04-08T14:31:44.506Z,16.23
2023-04-08T14:34:12.321Z,15.15
2023-04-08T14:36:40.467Z,16.48
2023-04-08T14:39:08.368Z,16.33
2023-04-08T14:41:36.216Z,15.65
2023-04-08T14:44:05.550Z,17.63
2023-04-08T14:46:34.850Z,17.67
2023-04-08T14:49:02.673Z,14.65
2023-04-08T14:51:31.836Z,15.52
2023-04-08T14:53:59.805Z,17.23
2023-04-08T14:56:27.653Z,17.20
2023-04-08T14:58:55.729Z,16.05
2023-04-08T15:01:24.065Z,16.02
2023-04-08T15:03:53.388Z,16.98
2023-04-08T15:06:21.752Z,16.98
2023-04-08T15:08:49.936Z,16.95
2023-04-08T15:11:19.593Z,16.38
2023-04-08T15:13:47.408Z,17.50
2023-04-08T15:16:15.747Z,14.43
2023-04-08T15:18:43.588Z,16.73
2023-04-08T15:21:12.736Z,16.40
2023-04-08T15:23:42.017Z,19.30
2023-04-08T15:26:11.420Z,18.90
2023-04-08T15:28:40.497Z,18.02
2023-04-08T15:31:08.879Z,17.88
2023-04-08T15:33:41.235Z,19.02
2023-04-08T15:36:09.061Z,17.65
2023-04-08T15:38:39.956Z,20.05
2023-04-08T15:41:07.747Z,19.45
2023-04-08T15:43:35.932Z,20.23
2023-04-08T15:46:04.442Z,22.75
2023-04-08T15:48:32.727Z,24.25
2023-04-08T15:51:00.447Z,24.45
2023-04-08T15:53:28.419Z,24.40
2023-04-08T15:55:57.965Z,25.25
2023-04-08T15:58:25.936Z,24.63
2023-04-08T16:00:55.763Z,27.50
2023-04-08T16:03:23.748Z,26.42
2023-04-08T16:05:52.124Z,26.60
2023-04-08T16:08:20.175Z,28.45
2023-04-08T16:10:48.065Z,28.80
2023-04-08T16:13:17.410Z,31.75
2023-04-08T16:15:45.631Z,33.28
2023-04-08T16:18:13.903Z,33.28
2023-04-08T16:20:41.966Z,48.42
2023-04-08T16:23:10.230Z,46.78
2023-04-08T16:25:38.117Z,39.63
2023-04-08T16:28:06.502Z,47.20
2023-04-08T16:30:37.555Z,41.97
2023-04-08T16:33:06.092Z,44.10
2023-04-08T16:35:34.114Z,36.08
2023-04-08T16:38:01.854Z,35.70
2023-04-08T16:40:33.026Z,36.30
2023-04-08T16:43:01.080Z,35.97
2023-04-08T16:45:30.496Z,37.25
2023-04-08T16:48:00.636Z,38.35
2023-04-08T16:50:28.965Z,40.22
2023-04-08T16:52:57.112Z,37.60
2023-04-08T16:55:24.958Z,38.38
2023-04-08T16:57:52.916Z,39.65
2023-04-08T17:00:22.425Z,38.85
2023-04-08T17:02:50.657Z,42.88
2023-04-08T17:05:20.361Z,41.08
2023-04-08T17:07:48.112Z,42.40
2023-04-08T17:10:16.402Z,41.83
2023-04-08T17:12:44.243Z,47.33
2023-04-08T17:15:12.640Z,41.85
2023-04-08T17:17:40.447Z,41.25
2023-04-08T17:20:09.259Z,44.28
2023-04-08T17:22:38.446Z,45.28
2023-04-08T17:25:07.442Z,42.53
2023-04-08T17:27:35.473Z,43.78
2023-04-08T17:30:03.660Z,42.05
2023-04-08T17:32:32.183Z,32.53
2023-04-08T17:35:00.087Z,25.98
2023-04-08T17:37:28.040Z,24.15
2023-04-08T17:39:57.403Z,23.83
2023-04-08T17:42:25.107Z,23.55
2023-04-08T17:44:53.008Z,23.38
2023-04-08T17:47:21.117Z,23.38
2023-04-08T17:49:48.863Z,23.35
2023-04-08T17:52:16.570Z,25.08
2023-04-08T17:54:44.253Z,24.50
2023-04-08T17:57:14.276Z,25.40
2023-04-08T17:59:42.053Z,25.05
2023-04-08T18:02:10.038Z,25.75
2023-04-08T18:04:38.236Z,24.17
2023-04-08T18:07:06.168Z,25.20
2023-04-08T18:09:34.085Z,26.02
2023-04-08T18:12:01.911Z,25.20
2023-04-08T18:14:31.373Z,25.38
2023-04-08T18:16:59.208Z,26.20
2023-04-08T18:19:27.047Z,25.77
2023-04-08T18:21:55.466Z,26.08
2023-04-08T18:24:23.268Z,26.90
2023-04-08T18:26:57.948Z,24.58
2023-04-08T18:29:32.879Z,25.58
2023-04-08T18:32:00.852Z,26.83
2023-04-08T18:34:28.747Z,26.23
2023-04-08T18:36:56.799Z,26.38
2023-04-08T18:39:24.541Z,26.45
2023-04-08T18:41:52.241Z,27.08
2023-04-08T18:44:20.174Z,26.30
2023-04-08T18:46:49.418Z,26.70
2023-04-08T18:49:17.150Z,27.80
2023-04-08T18:51:59.143Z,25.77
2023-04-08T18:54:30.689Z,25.33
2023-04-08T18:56:58.689Z,27.02
2023-04-08T18:59:28.320Z,26.27
2023-04-08T19:01:58.016Z,26.95
2023-04-08T19:04:26.311Z,26.52
2023-04-08T19:06:54.407Z,27.33
2023-04-08T19:09:22.331Z,27.95
2023-04-08T19:11:50.196Z,27.92
2023-04-08T19:14:18.364Z,27.85
2023-04-08T19:16:46.151Z,26.55
2023-04-08T19:19:16.193Z,28.10
2023-04-08T19:21:44.395Z,28.30
2023-04-08T19:24:12.091Z,28.75
2023-04-08T19:26:39.876Z,27.75
2023-04-08T19:29:09.325Z,27.83
2023-04-08T19:31:37.776Z,28.48
2023-04-08T19:34:05.766Z,29.08
2023-04-08T19:36:34.943Z,28.48
2023-04-08T19:39:03.622Z,30.00
2023-04-08T19:41:31.617Z,29.38
2023-04-08T19:43:59.411Z,29.08
2023-04-08T19:46:29.198Z,28.23
2023-04-08T19:48:58.973Z,31.27
2023-04-08T19:51:27.446Z,31.52
2023-04-08T19:53:56.665Z,31.00
2023-04-08T19:56:24.473Z,29.55
2023-04-08T19:58:52.768Z,34.15
2023-04-08T20:01:21.236Z,29.10
2023-04-08T20:03:50.388Z,30.13
2023-04-08T20:06:18.619Z,30.05
2023-04-08T20:08:46.783Z,31.17
2023-04-08T20:11:16.005Z,30.80
2023-04-08T20:13:43.964Z,30.13
2023-04-08T20:16:11.941Z,31.92
2023-04-08T20:18:39.797Z,31.80
2023-04-08T20:21:10.121Z,31.85
2023-04-08T20:23:40.460Z,33.33
2023-04-08T20:26:08.544Z,33.53
2023-04-08T20:28:37.709Z,31.15
2023-04-08T20:31:05.767Z,29.98
2023-04-08T20:33:33.627Z,34.65
2023-04-08T20:36:01.635Z,32.28
2023-04-08T20:38:29.423Z,31.33
2023-04-08T20:40:57.388Z,33.03
2023-04-08T20:43:25.236Z,35.60
2023-04-08T20:45:54.571Z,34.13
2023-04-08T20:48:22.428Z,36.13
2023-04-08T20:50:50.703Z,35.33
2023-04-08T20:53:19.564Z,35.35
2023-04-08T20:55:47.434Z,37.78
2023-04-08T20:58:15.277Z,35.42
2023-04-08T21:00:43.050Z,38.35
2023-04-08T21:03:13.007Z,37.97
2023-04-08T21:05:41.156Z,39.22
2023-04-08T21:08:08.948Z,39.70
2023-04-08T21:10:36.761Z,41.90
2023-04-08T21:13:04.587Z,41.42
2023-04-08T21:15:32.626Z,42.47
2023-04-08T21:18:00.415Z,43.80
2023-04-08T21:20:29.903Z,45.08
2023-04-08T21:22:59.160Z,47.65
2023-04-08T21:25:27.509Z,47.47
2023-04-08T21:27:55.559Z,50.85
2023-04-08T21:30:24.083Z,49.38
2023-04-08T21:32:52.581Z,51.30
2023-04-08T21:35:20.613Z,53.97
2023-04-08T21:37:49.852Z,56.58
2023-04-08T21:40:18.160Z,59.65
2023-04-08T21:42:46.568Z,55.78
2023-04-08T21:45:15.400Z,56.92
2023-04-08T21:47:43.261Z,60.28
2023-04-08T21:50:11.861Z,59.80
2023-04-08T21:52:41.590Z,61.08
2023-04-08T21:55:12.460Z,59.22
2023-04-08T21:57:41.484Z,62.63
2023-04-08T22:00:13.390Z,59.97
2023-04-08T22:02:45.273Z,59.00
2023-04-08T22:05:13.496Z,60.92
2023-04-08T22:07:41.608Z,61.45
2023-04-08T22:10:10.271Z,57.17
2023-04-08T22:12:39.543Z,59.53
2023-04-08T22:15:09.439Z,60.92
2023-04-08T22:17:37.582Z,62.83
2023-04-08T22:20:06.321Z,61.88
2023-04-08T22:22:34.450Z,60.65
2023-04-08T22:25:02.365Z,62.55
2023-04-08T22:27:30.339Z,62.65
2023-04-08T22:29:59.597Z,60.05
2023-04-08T22:32:27.462Z,60.42
2023-04-08T22:34:55.625Z,63.38
2023-04-08T22:37:23.411Z,61.33
2023-04-08T22:39:51.151Z,58.55
2023-04-08T22:42:18.900Z,58.22
2023-04-08T22:44:46.814Z,56.83
2023-04-08T22:47:16.081Z,55.45
2023-04-08T22:49:43.944Z,55.70
2023-04-08T22:52:11.828Z,58.30
2023-04-08T22:54:39.644Z,58.05
2023-04-08T22:57:07.547Z,56.67
2023-04-08T22:59:35.776Z,56.63
2023-04-08T23:02:03.689Z,55.05
2023-04-08T23:04:32.883Z,53.90
2023-04-08T23:07:00.781Z,51.53
2023-04-08T23:09:28.646Z,49.17
2023-04-08T23:11:57.403Z,48.90
2023-04-08T23:14:25.309Z,51.00
2023-04-08T23:16:53.168Z,53.97
2023-04-08T23:19:21.111Z,51.40
2023-04-08T23:21:50.377Z,54.38
2023-04-08T23:24:18.137Z,53.78
2023-04-08T23:26:46.305Z,56.17
2023-04-08T23:29:14.045Z,54.10
2023-04-08T23:31:41.866Z,57.15
2023-04-08T23:34:09.737Z,55.42
2023-04-08T23:36:37.619Z,58.50
2023-04-08T23:39:06.948Z,58.25
2023-04-08T23:41:34.863Z,57.15
2023-04-08T23:44:02.677Z,58.72
2023-04-08T23:46:30.646Z,57.10
2023-04-08T23:48:58.394Z,56.45
2023-04-08T23:51:26.652Z,54.75
2023-04-08T23:53:54.508Z,55.55
2023-04-08T23:56:23.861Z,54.60
2023-04-08T23:58:51.956Z,52.20
